createdAt,value
2019-06-25T00:00:20.265Z,0.00
2019-06-25T00:01:20.307Z,0.00
2019-06-25T00:02:20.353Z,0.00
2019-06-25T00:03:20.398Z,0.00
2019-06-25T00:04:20.453Z,0.00
2019-06-25T00:05:20.506Z,0.00
2019-06-25T00:06:20.537Z,0.00
2019-06-25T00:07:20.580Z,0.00
2019-06-25T00:08:20.625Z,0.00
2019-06-25T00:09:20.669Z,0.00
2019-06-25T00:10:20.716Z,0.00
2019-06-25T00:11:20.759Z,0.00
2019-06-25T00:12:20.807Z,0.00
2019-06-25T00:13:20.851Z,0.00
2019-06-25T00:14:20.894Z,0.00
2019-06-25T00:15:20.942Z,0.00
2019-06-25T00:16:20.998Z,0.00
2019-06-25T00:17:21.030Z,0.00
2019-06-25T00:18:21.075Z,0.00
2019-06-25T00:19:21.119Z,0.00
2019-06-25T00:20:21.162Z,0.00
2019-06-25T00:21:21.213Z,0.00
2019-06-25T00:22:21.259Z,0.00
2019-06-25T00:23:21.300Z,0.00
2019-06-25T00:24:21.348Z,0.00
2019-06-25T00:25:21.388Z,0.00
2019-06-25T00:26:21.434Z,0.00
2019-06-25T00:27:21.480Z,0.00
2019-06-25T00:28:21.526Z,0.00
2019-06-25T00:29:21.574Z,0.00
2019-06-25T00:30:21.630Z,0.00
2019-06-25T00:31:21.668Z,0.00
2019-06-25T00:32:21.712Z,0.00
2019-06-25T00:33:21.754Z,0.00
2019-06-25T00:34:21.810Z,0.00
2019-06-25T00:35:21.841Z,0.00
2019-06-25T00:36:21.903Z,0.00
2019-06-25T00:37:21.929Z,0.00
2019-06-25T00:38:21.977Z,0.00
2019-06-25T00:39:22.018Z,0.00
2019-06-25T00:40:22.065Z,0.00
2019-06-25T00:41:22.112Z,0.00
2019-06-25T00:42:22.163Z,0.00
2019-06-25T00:43:22.207Z,0.00
2019-06-25T00:44:22.243Z,0.00
2019-06-25T00:45:22.289Z,0.00
2019-06-25T00:46:22.347Z,0.00
2019-06-25T00:47:22.381Z,0.00
2019-06-25T00:48:22.423Z,0.00
2019-06-25T00:49:22.470Z,0.00
2019-06-25T00:50:22.517Z,0.00
2019-06-25T00:51:22.560Z,0.00
2019-06-25T00:52:22.611Z,0.00
2019-06-25T00:53:22.656Z,0.00
2019-06-25T00:54:22.693Z,0.00
2019-06-25T00:55:22.738Z,0.00
2019-06-25T00:56:22.784Z,0.00
2019-06-25T00:57:22.828Z,0.00
2019-06-25T00:58:22.874Z,0.00
2019-06-25T00:59:22.921Z,0.00
2019-06-25T01:00:22.963Z,0.00
2019-06-25T01:01:23.027Z,0.00
2019-06-25T01:02:23.052Z,0.00
2019-06-25T01:03:23.097Z,0.00
2019-06-25T01:04:23.142Z,0.00
2019-06-25T01:05:23.186Z,0.00
2019-06-25T01:06:23.231Z,0.00
2019-06-25T01:07:23.276Z,0.00
2019-06-25T01:08:23.324Z,0.00
2019-06-25T01:09:23.365Z,0.00
2019-06-25T01:10:23.411Z,0.00
2019-06-25T01:11:23.458Z,0.00
2019-06-25T01:12:23.507Z,0.00
2019-06-25T01:13:23.544Z,0.00
2019-06-25T01:14:23.589Z,0.00
2019-06-25T01:15:23.636Z,0.00
2019-06-25T01:16:23.677Z,0.00
2019-06-25T01:17:23.727Z,0.00
2019-06-25T01:18:23.767Z,0.00
2019-06-25T01:19:23.969Z,0.00
2019-06-25T01:20:23.858Z,0.00
2019-06-25T01:21:23.902Z,0.00
2019-06-25T01:22:23.947Z,0.00
2019-06-25T01:23:23.991Z,0.00
2019-06-25T01:24:24.041Z,0.00
2019-06-25T01:25:24.081Z,0.00
2019-06-25T01:26:24.127Z,0.00
2019-06-25T01:27:24.171Z,0.00
2019-06-25T01:28:24.215Z,0.00
2019-06-25T01:29:24.260Z,0.00
2019-06-25T01:30:29.162Z,0.00
2019-06-25T01:31:24.348Z,0.00
2019-06-25T01:32:24.393Z,0.00
2019-06-25T01:33:24.436Z,0.00
2019-06-25T01:34:24.481Z,0.00
2019-06-25T01:35:24.615Z,0.00
2019-06-25T01:36:24.571Z,0.00
2019-06-25T01:37:24.615Z,0.00
2019-06-25T01:38:24.660Z,0.00
2019-06-25T01:39:24.705Z,0.00
2019-06-25T01:40:24.749Z,0.00
2019-06-25T01:41:24.794Z,0.00
2019-06-25T01:42:24.848Z,0.00
2019-06-25T01:43:24.893Z,0.00
2019-06-25T01:44:24.935Z,0.00
2019-06-25T01:45:24.984Z,0.00
2019-06-25T01:46:25.016Z,0.00
2019-06-25T01:47:25.062Z,0.00
2019-06-25T01:48:25.110Z,0.00
2019-06-25T01:49:25.177Z,0.00
2019-06-25T01:50:25.198Z,0.00
2019-06-25T01:51:25.242Z,0.00
2019-06-25T01:52:25.300Z,0.00
2019-06-25T01:53:25.333Z,0.00
2019-06-25T01:54:25.376Z,0.00
2019-06-25T01:55:25.419Z,0.00
2019-06-25T01:56:25.463Z,0.00
2019-06-25T01:57:25.508Z,0.00
2019-06-25T01:58:25.560Z,0.00
2019-06-25T01:59:25.610Z,0.00
2019-06-25T02:00:25.649Z,0.00
2019-06-25T02:01:25.686Z,0.00
2019-06-25T02:02:25.729Z,0.00
2019-06-25T02:03:25.772Z,0.00
2019-06-25T02:04:25.821Z,0.00
2019-06-25T02:05:25.873Z,0.00
2019-06-25T02:06:25.908Z,0.00
2019-06-25T02:07:25.952Z,0.00
2019-06-25T02:08:26.002Z,0.00
2019-06-25T02:09:26.044Z,0.00
2019-06-25T02:10:26.087Z,0.00
2019-06-25T02:11:26.138Z,0.00
2019-06-25T02:12:26.175Z,0.00
2019-06-25T02:13:26.221Z,0.00
2019-06-25T02:14:26.267Z,0.00
2019-06-25T02:15:26.309Z,0.00
2019-06-25T02:16:26.352Z,0.00
2019-06-25T02:17:26.397Z,4.00
2019-06-25T02:18:29.232Z,4.00
2019-06-25T02:19:26.485Z,4.00
2019-06-25T02:20:26.533Z,0.00
2019-06-25T02:21:26.575Z,0.00
2019-06-25T02:22:26.620Z,4.00
2019-06-25T02:23:26.665Z,4.00
2019-06-25T02:24:26.709Z,4.00
2019-06-25T02:25:26.753Z,4.00
2019-06-25T02:26:26.797Z,4.00
2019-06-25T02:27:26.843Z,4.00
2019-06-25T02:28:26.896Z,8.00
2019-06-25T02:29:26.930Z,4.00
2019-06-25T02:30:26.979Z,8.00
2019-06-25T02:31:27.029Z,8.00
2019-06-25T02:32:27.074Z,8.00
2019-06-25T02:33:27.112Z,8.00
2019-06-25T02:34:27.273Z,12.00
2019-06-25T02:35:27.197Z,12.00
2019-06-25T02:36:27.244Z,12.00
2019-06-25T02:37:27.285Z,12.00
2019-06-25T02:38:27.330Z,16.00
2019-06-25T02:39:27.376Z,20.00
2019-06-25T02:40:27.422Z,24.00
2019-06-25T02:41:27.463Z,24.00
2019-06-25T02:42:27.509Z,28.00
2019-06-25T02:43:27.558Z,28.00
2019-06-25T02:44:27.600Z,36.00
2019-06-25T02:45:27.642Z,40.00
2019-06-25T02:46:27.696Z,48.00
2019-06-25T02:47:27.746Z,56.00
2019-06-25T02:48:27.776Z,64.00
2019-06-25T02:49:27.817Z,72.00
2019-06-25T02:50:27.873Z,84.00
2019-06-25T02:51:27.907Z,92.00
2019-06-25T02:52:27.959Z,100.00
2019-06-25T02:53:28.004Z,108.00
2019-06-25T02:54:28.043Z,116.00
2019-06-25T02:55:28.089Z,128.00
2019-06-25T02:56:28.132Z,136.00
2019-06-25T02:57:28.173Z,148.00
2019-06-25T02:58:28.225Z,160.00
2019-06-25T02:59:28.268Z,176.00
2019-06-25T03:00:28.303Z,204.00
2019-06-25T03:01:29.930Z,228.00
2019-06-25T03:02:28.395Z,264.00
2019-06-25T03:03:28.447Z,304.00
2019-06-25T03:04:28.482Z,340.00
2019-06-25T03:05:28.526Z,364.00
2019-06-25T03:06:28.583Z,384.00
2019-06-25T03:07:28.615Z,400.00
2019-06-25T03:08:28.661Z,424.00
2019-06-25T03:09:28.712Z,448.00
2019-06-25T03:10:28.749Z,488.00
2019-06-25T03:11:28.795Z,524.00
2019-06-25T03:12:28.837Z,568.00
2019-06-25T03:13:28.884Z,604.00
2019-06-25T03:14:28.928Z,648.00
2019-06-25T03:15:28.973Z,704.00
2019-06-25T03:16:29.040Z,760.00
2019-06-25T03:17:29.056Z,824.00
2019-06-25T03:18:29.103Z,888.00
2019-06-25T03:19:29.147Z,956.00
2019-06-25T03:20:29.190Z,1028.00
2019-06-25T03:21:29.239Z,1104.00
2019-06-25T03:22:29.281Z,1180.00
2019-06-25T03:23:29.326Z,1256.00
2019-06-25T03:24:29.366Z,1332.00
2019-06-25T03:25:29.412Z,1396.00
2019-06-25T03:26:29.459Z,1464.00
2019-06-25T03:27:29.501Z,1532.00
2019-06-25T03:28:29.545Z,1600.00
2019-06-25T03:29:33.418Z,1684.00
2019-06-25T03:30:29.671Z,1756.00
2019-06-25T03:32:01.126Z,1816.00
2019-06-25T03:32:29.723Z,1864.00
2019-06-25T03:33:29.770Z,1924.00
2019-06-25T03:34:29.816Z,1996.00
2019-06-25T03:35:29.857Z,2080.00
2019-06-25T03:36:29.906Z,2172.00
2019-06-25T03:37:29.947Z,2256.00
2019-06-25T03:38:29.990Z,2332.00
2019-06-25T03:39:30.045Z,2400.00
2019-06-25T03:40:30.077Z,2468.00
2019-06-25T03:41:30.124Z,2544.00
2019-06-25T03:42:30.166Z,2616.00
2019-06-25T03:43:30.208Z,2680.00
2019-06-25T03:44:30.305Z,2736.00
2019-06-25T03:45:30.314Z,2788.00
2019-06-25T03:46:30.352Z,2844.00
2019-06-25T03:47:30.393Z,2904.00
2019-06-25T03:48:30.441Z,2980.00
2019-06-25T03:49:30.474Z,3048.00
2019-06-25T03:50:30.527Z,3112.00
2019-06-25T03:51:31.606Z,3172.00
2019-06-25T03:52:30.607Z,3224.00
2019-06-25T03:53:30.662Z,3276.00
2019-06-25T03:54:30.696Z,3320.00
2019-06-25T03:55:30.741Z,3360.00
2019-06-25T03:56:30.786Z,3392.00
2019-06-25T03:57:30.832Z,3432.00
2019-06-25T03:58:30.878Z,3472.00
2019-06-25T03:59:31.311Z,3520.00
2019-06-25T04:00:30.964Z,3572.00
2019-06-25T04:01:31.009Z,3620.00
2019-06-25T04:02:31.253Z,3668.00
2019-06-25T04:03:31.100Z,3696.00
2019-06-25T04:04:31.141Z,3720.00
2019-06-25T04:05:31.194Z,3740.00
2019-06-25T04:06:31.230Z,3764.00
2019-06-25T04:07:31.278Z,3812.00
2019-06-25T04:08:31.330Z,3876.00
2019-06-25T04:09:31.419Z,3956.00
2019-06-25T04:10:31.410Z,4036.00
2019-06-25T04:11:31.458Z,4108.00
2019-06-25T04:12:31.500Z,4160.00
2019-06-25T04:13:31.545Z,4220.00
2019-06-25T04:14:31.587Z,4272.00
2019-06-25T04:15:31.638Z,4344.00
2019-06-25T04:16:31.677Z,4432.00
2019-06-25T04:17:31.722Z,4552.00
2019-06-25T04:18:31.767Z,4680.00
2019-06-25T04:19:31.811Z,4824.00
2019-06-25T04:20:31.856Z,4972.00
2019-06-25T04:21:31.902Z,5148.00
2019-06-25T04:22:31.956Z,5320.00
2019-06-25T04:23:31.995Z,5492.00
2019-06-25T04:24:32.039Z,5604.00
2019-06-25T04:25:32.337Z,5716.00
2019-06-25T04:26:32.126Z,5820.00
2019-06-25T04:27:32.171Z,5948.00
2019-06-25T04:28:32.223Z,6120.00
2019-06-25T04:29:32.264Z,6292.00
2019-06-25T04:30:32.306Z,6476.00
2019-06-25T04:31:32.352Z,6660.00
2019-06-25T04:32:33.837Z,6840.00
2019-06-25T04:33:32.452Z,7012.00
2019-06-25T04:34:32.487Z,7172.00
2019-06-25T04:35:32.534Z,7300.00
2019-06-25T04:36:32.579Z,7436.00
2019-06-25T04:37:32.624Z,7620.00
2019-06-25T04:38:32.666Z,7848.00
2019-06-25T04:39:32.713Z,8116.00
2019-06-25T04:40:32.756Z,8288.00
2019-06-25T04:41:32.808Z,8404.00
2019-06-25T04:42:32.846Z,8536.00
2019-06-25T04:43:32.899Z,8692.00
2019-06-25T04:44:32.948Z,8848.00
2019-06-25T04:45:33.014Z,8992.00
2019-06-25T04:46:33.026Z,9104.00
2019-06-25T04:47:33.100Z,9176.00
2019-06-25T04:48:33.118Z,9240.00
2019-06-25T04:49:33.163Z,9316.00
2019-06-25T04:50:33.246Z,9380.00
2019-06-25T04:51:33.255Z,9416.00
2019-06-25T04:52:33.301Z,9432.00
2019-06-25T04:53:33.446Z,9428.00
2019-06-25T04:54:33.400Z,9420.00
2019-06-25T04:55:33.445Z,9408.00
2019-06-25T04:56:33.481Z,9328.00
2019-06-25T04:57:33.524Z,9184.00
2019-06-25T04:58:33.571Z,9000.00
2019-06-25T04:59:33.617Z,8804.00
2019-06-25T05:00:33.661Z,8644.00
2019-06-25T05:01:33.710Z,8560.00
2019-06-25T05:02:48.501Z,8416.00
2019-06-25T05:03:33.801Z,8248.00
2019-06-25T05:04:33.844Z,8040.00
2019-06-25T05:05:33.892Z,7872.00
2019-06-25T05:06:33.947Z,7880.00
2019-06-25T05:07:33.991Z,7944.00
2019-06-25T05:08:34.027Z,7932.00
2019-06-25T05:09:34.072Z,7824.00
2019-06-25T05:10:34.119Z,7676.00
2019-06-25T05:11:34.171Z,7588.00
2019-06-25T05:12:34.210Z,7468.00
2019-06-25T05:13:34.260Z,7416.00
2019-06-25T05:14:34.309Z,7748.00
2019-06-25T05:15:34.349Z,7724.00
2019-06-25T05:16:34.395Z,7916.00
2019-06-25T05:17:34.448Z,7392.00
2019-06-25T05:18:34.487Z,6844.00
2019-06-25T05:19:34.533Z,6356.00
2019-06-25T05:20:34.578Z,6028.00
2019-06-25T05:21:34.622Z,5844.00
2019-06-25T05:22:34.728Z,5788.00
2019-06-25T05:23:34.716Z,5848.00
2019-06-25T05:24:34.769Z,6000.00
2019-06-25T05:25:34.809Z,6180.00
2019-06-25T05:26:34.855Z,6268.00
2019-06-25T05:27:34.909Z,6304.00
2019-06-25T05:28:34.943Z,6360.00
2019-06-25T05:29:34.992Z,6404.00
2019-06-25T05:30:35.039Z,6568.00
2019-06-25T05:31:35.083Z,6584.00
2019-06-25T05:32:35.138Z,6544.00
2019-06-25T05:33:35.379Z,6568.00
2019-06-25T05:34:35.221Z,6612.00
2019-06-25T05:35:35.269Z,6660.00
2019-06-25T05:36:35.316Z,6628.00
2019-06-25T05:37:35.359Z,6480.00
2019-06-25T05:38:35.406Z,6464.00
2019-06-25T05:39:35.451Z,6640.00
2019-06-25T05:40:40.196Z,6820.00
2019-06-25T05:41:35.549Z,6672.00
2019-06-25T05:42:35.589Z,6500.00
2019-06-25T05:43:35.635Z,6584.00
2019-06-25T05:44:35.680Z,6720.00
2019-06-25T05:45:35.728Z,6756.00
2019-06-25T05:46:35.772Z,6840.00
2019-06-25T05:47:35.821Z,7096.00
2019-06-25T05:48:35.864Z,7260.00
2019-06-25T05:49:36.136Z,7316.00
2019-06-25T05:50:35.957Z,7328.00
2019-06-25T05:51:36.076Z,7364.00
2019-06-25T05:52:36.059Z,7392.00
2019-06-25T05:53:36.097Z,7544.00
2019-06-25T05:54:36.174Z,7724.00
2019-06-25T05:55:36.188Z,7872.00
2019-06-25T05:56:36.235Z,7996.00
2019-06-25T05:57:36.297Z,8152.00
2019-06-25T05:58:36.333Z,8116.00
2019-06-25T05:59:37.275Z,8208.00
2019-06-25T06:00:36.419Z,8480.00
2019-06-25T06:01:36.474Z,8664.00
2019-06-25T06:02:36.516Z,8780.00
2019-06-25T06:03:36.570Z,8864.00
2019-06-25T06:04:36.602Z,8884.00
2019-06-25T06:05:36.787Z,8892.00
2019-06-25T06:06:37.143Z,8884.00
2019-06-25T06:07:36.746Z,8864.00
2019-06-25T06:08:36.794Z,8860.00
2019-06-25T06:09:36.849Z,8836.00
2019-06-25T06:10:36.898Z,8808.00
2019-06-25T06:11:36.947Z,8796.00
2019-06-25T06:12:36.976Z,8724.00
2019-06-25T06:13:37.021Z,8584.00
2019-06-25T06:14:37.100Z,8568.00
2019-06-25T06:15:37.116Z,8576.00
2019-06-25T06:16:37.174Z,8608.00
2019-06-25T06:17:37.234Z,8576.00
2019-06-25T06:18:37.293Z,8640.00
2019-06-25T06:19:37.316Z,8720.00
2019-06-25T06:20:37.355Z,8812.00
2019-06-25T06:21:37.394Z,8900.00
2019-06-25T06:22:37.473Z,9000.00
2019-06-25T06:23:37.487Z,9028.00
2019-06-25T06:24:37.537Z,9028.00
2019-06-25T06:25:37.580Z,9040.00
2019-06-25T06:26:37.627Z,9116.00
2019-06-25T06:27:37.691Z,9180.00
2019-06-25T06:28:37.722Z,9184.00
2019-06-25T06:29:37.778Z,9212.00
2019-06-25T06:30:37.813Z,9212.00
2019-06-25T06:31:37.870Z,9176.00
2019-06-25T06:32:37.915Z,9088.00
2019-06-25T06:33:37.955Z,8976.00
2019-06-25T06:34:38.010Z,8840.00
2019-06-25T06:35:38.127Z,8828.00
2019-06-25T06:36:38.097Z,8924.00
2019-06-25T06:37:38.142Z,9072.00
2019-06-25T06:38:38.213Z,9124.00
2019-06-25T06:39:38.240Z,9176.00
2019-06-25T06:40:38.283Z,9240.00
2019-06-25T06:41:38.339Z,9248.00
2019-06-25T06:42:38.382Z,9248.00
2019-06-25T06:43:38.428Z,9244.00
2019-06-25T06:44:38.485Z,9216.00
2019-06-25T06:45:38.523Z,9236.00
2019-06-25T06:46:38.570Z,9272.00
2019-06-25T06:47:38.618Z,9360.00
2019-06-25T06:48:38.663Z,9356.00
2019-06-25T06:49:38.719Z,9328.00
2019-06-25T06:50:38.781Z,9312.00
2019-06-25T06:51:38.806Z,9272.00
2019-06-25T06:52:38.858Z,9232.00
2019-06-25T06:53:38.921Z,9184.00
2019-06-25T06:54:38.950Z,9260.00
2019-06-25T06:55:38.998Z,9436.00
2019-06-25T06:56:39.044Z,9492.00
2019-06-25T06:57:39.090Z,9464.00
2019-06-25T06:58:39.152Z,9476.00
2019-06-25T06:59:39.191Z,9548.00
2019-06-25T07:00:39.255Z,9660.00
2019-06-25T07:01:39.282Z,9744.00
2019-06-25T07:02:39.359Z,9840.00
2019-06-25T07:03:52.286Z,9916.00
2019-06-25T07:04:39.424Z,9996.00
2019-06-25T07:05:39.488Z,10068.00
2019-06-25T07:06:39.520Z,10140.00
2019-06-25T07:07:39.568Z,10168.00
2019-06-25T07:08:39.620Z,10180.00
2019-06-25T07:09:39.665Z,10196.00
2019-06-25T07:10:39.716Z,10216.00
2019-06-25T07:11:39.769Z,10224.00
2019-06-25T07:12:39.811Z,10292.00
2019-06-25T07:13:39.854Z,10340.00
2019-06-25T07:14:39.903Z,10344.00
2019-06-25T07:15:39.963Z,10388.00
2019-06-25T07:16:39.999Z,10420.00
2019-06-25T07:17:40.046Z,10440.00
2019-06-25T07:18:40.143Z,10456.00
2019-06-25T07:19:40.143Z,10484.00
2019-06-25T07:20:40.191Z,10500.00
2019-06-25T07:21:40.237Z,10540.00
2019-06-25T07:22:40.292Z,10604.00
2019-06-25T07:23:40.337Z,10652.00
2019-06-25T07:24:40.384Z,10708.00
2019-06-25T07:25:40.438Z,10768.00
2019-06-25T07:26:40.484Z,10812.00
2019-06-25T07:27:43.085Z,10876.00
2019-06-25T07:28:40.575Z,10948.00
2019-06-25T07:29:40.632Z,11024.00
2019-06-25T07:30:40.671Z,11056.00
2019-06-25T07:31:40.724Z,11084.00
2019-06-25T07:32:42.481Z,11120.00
2019-06-25T07:33:40.824Z,11208.00
2019-06-25T07:34:40.867Z,11256.00
2019-06-25T07:35:40.928Z,11296.00
2019-06-25T07:36:40.962Z,11308.00
2019-06-25T07:37:41.010Z,11316.00
2019-06-25T07:38:41.061Z,11316.00
2019-06-25T07:39:41.122Z,11332.00
2019-06-25T07:40:41.229Z,11336.00
2019-06-25T07:41:41.246Z,11316.00
2019-06-25T07:42:41.257Z,11300.00
2019-06-25T07:43:41.311Z,11284.00
2019-06-25T07:44:41.355Z,11248.00
2019-06-25T07:45:41.446Z,11192.00
2019-06-25T07:46:41.480Z,11104.00
2019-06-25T07:47:41.505Z,10960.00
2019-06-25T07:48:41.547Z,10856.00
2019-06-25T07:49:41.595Z,10784.00
2019-06-25T07:50:41.647Z,10712.00
2019-06-25T07:51:41.694Z,10604.00
2019-06-25T07:52:41.768Z,10560.00
2019-06-25T07:53:41.794Z,10536.00
2019-06-25T07:54:41.850Z,10440.00
2019-06-25T07:55:41.894Z,10292.00
2019-06-25T07:56:41.942Z,10204.00
2019-06-25T07:57:41.986Z,10088.00
2019-06-25T07:58:42.038Z,10028.00
2019-06-25T07:59:42.089Z,9940.00
2019-06-25T08:00:42.137Z,9744.00
2019-06-25T08:01:42.183Z,9740.00
2019-06-25T08:02:42.240Z,9632.00
2019-06-25T08:03:42.281Z,9484.00
2019-06-25T08:04:42.339Z,9304.00
2019-06-25T08:05:42.377Z,9184.00
2019-06-25T08:06:42.425Z,9060.00
2019-06-25T08:07:42.477Z,8884.00
2019-06-25T08:08:42.524Z,8744.00
2019-06-25T08:09:42.585Z,8564.00
2019-06-25T08:10:42.621Z,8392.00
2019-06-25T08:11:42.671Z,8228.00
2019-06-25T08:12:42.720Z,8108.00
2019-06-25T08:13:42.774Z,8016.00
2019-06-25T08:14:42.823Z,7936.00
2019-06-25T08:15:42.869Z,7788.00
2019-06-25T08:16:42.990Z,7724.00
2019-06-25T08:17:42.967Z,7656.00
2019-06-25T08:18:43.110Z,7576.00
2019-06-25T08:19:43.072Z,7428.00
2019-06-25T08:20:43.110Z,7352.00
2019-06-25T08:21:43.163Z,7320.00
2019-06-25T08:22:43.213Z,7300.00
2019-06-25T08:23:43.275Z,7256.00
2019-06-25T08:24:43.306Z,7200.00
2019-06-25T08:25:43.367Z,7140.00
2019-06-25T08:26:43.418Z,7088.00
2019-06-25T08:27:43.471Z,7044.00
2019-06-25T08:28:43.506Z,7000.00
2019-06-25T08:29:43.552Z,6956.00
2019-06-25T08:30:43.601Z,6888.00
2019-06-25T08:31:43.654Z,6796.00
2019-06-25T08:32:43.698Z,6716.00
2019-06-25T08:33:43.751Z,6636.00
2019-06-25T08:34:43.795Z,6600.00
2019-06-25T08:35:43.845Z,6528.00
2019-06-25T08:36:43.896Z,6460.00
2019-06-25T08:37:43.942Z,6404.00
2019-06-25T08:38:44.001Z,6328.00
2019-06-25T08:39:44.042Z,6264.00
2019-06-25T08:40:44.235Z,6224.00
2019-06-25T08:41:44.144Z,6196.00
2019-06-25T08:42:44.193Z,6148.00
2019-06-25T08:43:44.259Z,6104.00
2019-06-25T08:44:44.285Z,6068.00
2019-06-25T08:45:44.335Z,6044.00
2019-06-25T08:46:44.386Z,6012.00
2019-06-25T08:47:44.443Z,5976.00
2019-06-25T08:48:44.481Z,5964.00
2019-06-25T08:49:44.531Z,5948.00
2019-06-25T08:50:44.578Z,5916.00
2019-06-25T08:51:44.635Z,5896.00
2019-06-25T08:52:57.600Z,5880.00
2019-06-25T08:53:44.727Z,5856.00
2019-06-25T08:54:44.776Z,5852.00
2019-06-25T08:55:44.832Z,5840.00
2019-06-25T08:56:44.882Z,5832.00
2019-06-25T08:57:44.919Z,5832.00
2019-06-25T08:58:44.972Z,5824.00
2019-06-25T08:59:45.033Z,5812.00
2019-06-25T09:00:45.066Z,5796.00
2019-06-25T09:01:45.117Z,5804.00
2019-06-25T09:02:45.168Z,5816.00
2019-06-25T09:03:45.226Z,5820.00
2019-06-25T09:04:57.517Z,5828.00
2019-06-25T09:05:45.326Z,5816.00
2019-06-25T09:06:45.435Z,5832.00
2019-06-25T09:07:45.411Z,5840.00
2019-06-25T09:08:45.461Z,5864.00
2019-06-25T09:09:45.511Z,5852.00
2019-06-25T09:10:45.564Z,5860.00
2019-06-25T09:11:45.646Z,5884.00
2019-06-25T09:12:45.660Z,5900.00
2019-06-25T09:13:45.708Z,5920.00
2019-06-25T09:14:45.756Z,5940.00
2019-06-25T09:15:45.832Z,5952.00
2019-06-25T09:16:45.877Z,5968.00
2019-06-25T09:17:45.900Z,5988.00
2019-06-25T09:18:45.951Z,6008.00
2019-06-25T09:19:50.364Z,6028.00
2019-06-25T09:20:46.048Z,6052.00
2019-06-25T09:21:46.098Z,6076.00
2019-06-25T09:22:46.146Z,6084.00
2019-06-25T09:23:46.198Z,6072.00
2019-06-25T09:24:46.245Z,6036.00
2019-06-25T09:25:46.297Z,6052.00
2019-06-25T09:26:46.357Z,6080.00
2019-06-25T09:27:46.393Z,6128.00
2019-06-25T09:28:46.464Z,6176.00
2019-06-25T09:29:46.500Z,6200.00
2019-06-25T09:30:46.541Z,6236.00
2019-06-25T09:31:46.590Z,6288.00
2019-06-25T09:32:46.640Z,6312.00
2019-06-25T09:33:46.688Z,6316.00
2019-06-25T09:34:46.746Z,6304.00
2019-06-25T09:35:46.790Z,6248.00
2019-06-25T09:36:46.845Z,6144.00
2019-06-25T09:37:46.886Z,6156.00
2019-06-25T09:38:46.937Z,6228.00
2019-06-25T09:39:46.985Z,6308.00
2019-06-25T09:40:47.063Z,6392.00
2019-06-25T09:41:47.171Z,6484.00
2019-06-25T09:42:47.131Z,6580.00
2019-06-25T09:43:59.573Z,6628.00
2019-06-25T09:44:47.231Z,6680.00
2019-06-25T09:45:47.282Z,6712.00
2019-06-25T09:46:47.329Z,6752.00
2019-06-25T09:47:47.479Z,6836.00
2019-06-25T09:48:47.429Z,6908.00
2019-06-25T09:49:47.478Z,6988.00
2019-06-25T09:50:47.525Z,7068.00
2019-06-25T09:51:47.583Z,7144.00
2019-06-25T09:52:47.627Z,7232.00
2019-06-25T09:53:47.675Z,7316.00
2019-06-25T09:54:47.729Z,7400.00
2019-06-25T09:55:47.773Z,7476.00
2019-06-25T09:56:47.823Z,7532.00
2019-06-25T09:57:47.892Z,7588.00
2019-06-25T09:58:47.921Z,7624.00
2019-06-25T09:59:47.973Z,7676.00
2019-06-25T10:00:48.023Z,7704.00
2019-06-25T10:01:48.087Z,7800.00
2019-06-25T10:02:48.130Z,7868.00
2019-06-25T10:03:48.171Z,7920.00
2019-06-25T10:04:48.228Z,7960.00
2019-06-25T10:05:48.269Z,7988.00
2019-06-25T10:06:48.323Z,8060.00
2019-06-25T10:07:48.369Z,8104.00
2019-06-25T10:08:48.434Z,8136.00
2019-06-25T10:09:48.467Z,8132.00
2019-06-25T10:10:48.527Z,8108.00
2019-06-25T10:11:48.570Z,8104.00
2019-06-25T10:12:48.649Z,8092.00
2019-06-25T10:13:48.667Z,8068.00
2019-06-25T10:14:48.715Z,8008.00
2019-06-25T10:15:48.773Z,7948.00
2019-06-25T10:16:48.820Z,7912.00
2019-06-25T10:17:48.882Z,7912.00
2019-06-25T10:18:48.915Z,7944.00
2019-06-25T10:19:48.967Z,7912.00
2019-06-25T10:20:49.023Z,8008.00
2019-06-25T10:21:49.073Z,8008.00
2019-06-25T10:22:52.906Z,8012.00
2019-06-25T10:23:49.163Z,8000.00
2019-06-25T10:24:49.264Z,8052.00
2019-06-25T10:25:49.492Z,8116.00
2019-06-25T10:26:49.313Z,8204.00
2019-06-25T10:27:49.374Z,8332.00
2019-06-25T10:28:49.418Z,8420.00
2019-06-25T10:29:49.474Z,8504.00
2019-06-25T10:30:49.518Z,8560.00
2019-06-25T10:31:49.564Z,8628.00
2019-06-25T10:32:49.614Z,8688.00
2019-06-25T10:33:49.675Z,8724.00
2019-06-25T10:34:49.713Z,8752.00
2019-06-25T10:35:49.771Z,8792.00
2019-06-25T10:36:49.817Z,8864.00
2019-06-25T10:37:49.862Z,8876.00
2019-06-25T10:38:49.915Z,8856.00
2019-06-25T10:39:49.963Z,8860.00
2019-06-25T10:40:50.184Z,8872.00
2019-06-25T10:41:50.064Z,8828.00
2019-06-25T10:42:50.115Z,8820.00
2019-06-25T10:43:50.166Z,8852.00
2019-06-25T10:44:50.224Z,8924.00
2019-06-25T10:45:50.263Z,8964.00
2019-06-25T10:46:50.313Z,8940.00
2019-06-25T10:47:50.367Z,8916.00
2019-06-25T10:48:50.415Z,8844.00
2019-06-25T10:49:50.466Z,8732.00
2019-06-25T10:50:50.515Z,8592.00
2019-06-25T10:51:50.728Z,8512.00
2019-06-25T10:52:50.622Z,8456.00
2019-06-25T10:53:50.669Z,8432.00
2019-06-25T10:54:50.837Z,8472.00
2019-06-25T10:55:50.767Z,8624.00
2019-06-25T10:56:50.838Z,8788.00
2019-06-25T10:57:50.869Z,8852.00
2019-06-25T10:58:50.917Z,8828.00
2019-06-25T10:59:50.967Z,8864.00
2019-06-25T11:00:51.019Z,8888.00
2019-06-25T11:01:51.070Z,8888.00
2019-06-25T11:02:51.121Z,8948.00
2019-06-25T11:03:51.169Z,8948.00
2019-06-25T11:04:51.222Z,9004.00
2019-06-25T11:06:04.219Z,9056.00
2019-06-25T11:07:00.995Z,9080.00
2019-06-25T11:07:51.376Z,9148.00
2019-06-25T11:08:51.423Z,9164.00
2019-06-25T11:09:51.472Z,9212.00
2019-06-25T11:10:51.533Z,9252.00
2019-06-25T11:11:51.579Z,9252.00
2019-06-25T11:12:51.627Z,9292.00
2019-06-25T11:14:07.250Z,9340.00
2019-06-25T11:14:51.725Z,9448.00
2019-06-25T11:15:51.876Z,9596.00
2019-06-25T11:16:51.828Z,9720.00
2019-06-25T11:17:51.878Z,9828.00
2019-06-25T11:18:51.929Z,9888.00
2019-06-25T11:19:51.978Z,9912.00
2019-06-25T11:20:52.029Z,9916.00
2019-06-25T11:21:52.082Z,9928.00
2019-06-25T11:22:52.131Z,9872.00
2019-06-25T11:23:52.181Z,9900.00
2019-06-25T11:24:52.232Z,9964.00
2019-06-25T11:26:16.403Z,10008.00
2019-06-25T11:26:52.333Z,10024.00
2019-06-25T11:27:52.387Z,10100.00
2019-06-25T11:28:52.436Z,10204.00
2019-06-25T11:29:52.488Z,10216.00
2019-06-25T11:30:52.538Z,10244.00
2019-06-25T11:31:52.597Z,10272.00
2019-06-25T11:32:52.665Z,10292.00
2019-06-25T11:33:52.699Z,10352.00
2019-06-25T11:34:55.524Z,10376.00
2019-06-25T11:35:52.797Z,10404.00
2019-06-25T11:36:52.842Z,10456.00
2019-06-25T11:37:52.899Z,10408.00
2019-06-25T11:38:52.955Z,10304.00
2019-06-25T11:39:53.003Z,10160.00
2019-06-25T11:40:53.045Z,10084.00
2019-06-25T11:41:53.100Z,9952.00
2019-06-25T11:42:53.148Z,9728.00
2019-06-25T11:43:53.197Z,9396.00
2019-06-25T11:44:53.247Z,9036.00
2019-06-25T11:45:53.300Z,8696.00
2019-06-25T11:46:53.350Z,8392.00
2019-06-25T11:47:53.402Z,7888.00
2019-06-25T11:48:53.482Z,7488.00
2019-06-25T11:49:53.515Z,7040.00
2019-06-25T11:50:53.554Z,7060.00
2019-06-25T11:51:53.604Z,7284.00
2019-06-25T11:52:53.665Z,7312.00
2019-06-25T11:53:53.707Z,7168.00
2019-06-25T11:54:53.766Z,6916.00
2019-06-25T11:55:53.816Z,6788.00
2019-06-25T11:56:53.859Z,6736.00
2019-06-25T11:57:53.908Z,6632.00
2019-06-25T11:58:53.959Z,6544.00
2019-06-25T11:59:54.012Z,6440.00
2019-06-25T12:00:54.061Z,6368.00
2019-06-25T12:01:54.189Z,6284.00
2019-06-25T12:02:54.182Z,6192.00
2019-06-25T12:03:54.214Z,6092.00
2019-06-25T12:04:54.309Z,5980.00
2019-06-25T12:05:54.315Z,5908.00
2019-06-25T12:06:55.019Z,5844.00
2019-06-25T12:07:54.435Z,5760.00
2019-06-25T12:08:54.465Z,5728.00
2019-06-25T12:09:54.517Z,5688.00
2019-06-25T12:10:54.571Z,5652.00
2019-06-25T12:11:54.618Z,5624.00
2019-06-25T12:12:54.675Z,5580.00
2019-06-25T12:13:54.717Z,5536.00
2019-06-25T12:14:54.873Z,5492.00
2019-06-25T12:15:54.819Z,5460.00
2019-06-25T12:16:54.988Z,5432.00
2019-06-25T12:17:54.975Z,5408.00
2019-06-25T12:18:55.076Z,5392.00
2019-06-25T12:19:55.023Z,5384.00